createdAt,value
2022-10-05T00:00:56.772Z,0.00
2022-10-05T00:01:56.878Z,0.00
2022-10-05T00:02:56.786Z,0.00
2022-10-05T00:03:56.811Z,0.00
2022-10-05T00:04:56.857Z,0.00
2022-10-05T00:05:56.802Z,0.00
2022-10-05T00:06:56.815Z,0.00
2022-10-05T00:07:56.813Z,0.00
2022-10-05T00:08:56.851Z,0.00
2022-10-05T00:09:56.838Z,0.00
2022-10-05T00:10:56.843Z,0.00
2022-10-05T00:11:56.841Z,0.00
2022-10-05T00:12:56.857Z,0.00
2022-10-05T00:13:56.856Z,0.00
2022-10-05T00:14:56.870Z,0.00
2022-10-05T00:15:56.869Z,0.00
2022-10-05T00:16:56.932Z,0.00
2022-10-05T00:17:56.890Z,0.00
2022-10-05T00:18:56.898Z,0.00
2022-10-05T00:19:56.900Z,0.00
2022-10-05T00:20:56.926Z,0.00
2022-10-05T00:21:56.910Z,0.00
2022-10-05T00:22:56.918Z,0.00
2022-10-05T00:23:56.927Z,0.00
2022-10-05T00:24:56.938Z,0.00
2022-10-05T00:25:56.940Z,0.00
2022-10-05T00:26:58.094Z,0.00
2022-10-05T00:27:57.028Z,0.00
2022-10-05T00:28:56.965Z,0.00
2022-10-05T00:29:56.968Z,0.00
2022-10-05T00:30:57.004Z,0.00
2022-10-05T00:31:57.129Z,0.00
2022-10-05T00:32:59.688Z,0.00
2022-10-05T00:33:56.994Z,0.00
2022-10-05T00:34:57.003Z,0.00
2022-10-05T00:35:57.015Z,0.00
2022-10-05T00:36:57.044Z,0.00
2022-10-05T00:37:57.030Z,0.00
2022-10-05T00:38:57.037Z,0.00
2022-10-05T00:39:57.047Z,0.00
2022-10-05T00:40:57.044Z,0.00
2022-10-05T00:41:57.047Z,0.00
2022-10-05T00:42:57.061Z,0.00
2022-10-05T00:43:57.059Z,0.00
2022-10-05T00:44:57.068Z,0.00
2022-10-05T00:45:57.129Z,0.00
2022-10-05T00:46:57.088Z,0.00
2022-10-05T00:47:57.086Z,0.00
2022-10-05T00:48:57.101Z,0.00
2022-10-05T00:49:57.108Z,0.00
2022-10-05T00:50:57.106Z,0.00
2022-10-05T00:51:57.115Z,0.00
2022-10-05T00:52:57.166Z,0.00
2022-10-05T00:53:57.129Z,0.00
2022-10-05T00:54:57.140Z,0.00
2022-10-05T00:55:57.149Z,0.00
2022-10-05T00:56:57.154Z,0.00
2022-10-05T00:57:57.157Z,0.00
2022-10-05T00:58:57.166Z,0.00
2022-10-05T00:59:57.178Z,0.00
2022-10-05T01:00:57.201Z,0.00
2022-10-05T01:01:57.243Z,0.00
2022-10-05T01:02:57.200Z,0.00
2022-10-05T01:03:57.193Z,0.00
2022-10-05T01:04:57.199Z,0.00
2022-10-05T01:05:57.215Z,0.00
2022-10-05T01:06:57.218Z,0.00
2022-10-05T01:07:57.216Z,0.00
2022-10-05T01:08:57.261Z,0.00
2022-10-05T01:09:57.229Z,0.00
2022-10-05T01:10:57.237Z,0.00
2022-10-05T01:11:57.242Z,0.00
2022-10-05T01:12:57.251Z,0.00
2022-10-05T01:13:57.362Z,0.00
2022-10-05T01:25:59.669Z,0.00
2022-10-05T01:26:59.663Z,0.00
2022-10-05T01:27:59.720Z,0.00
2022-10-05T01:28:59.677Z,0.00
2022-10-05T01:29:59.673Z,0.00
2022-10-05T01:30:59.681Z,0.00
2022-10-05T01:31:59.743Z,0.00
2022-10-05T01:32:59.693Z,0.00
2022-10-05T01:33:59.698Z,0.00
2022-10-05T01:34:59.712Z,0.00
2022-10-05T01:35:59.710Z,0.00
2022-10-05T01:36:59.716Z,0.00
2022-10-05T01:37:59.723Z,0.00
2022-10-05T01:38:59.736Z,0.00
2022-10-05T01:39:59.734Z,0.00
2022-10-05T01:40:59.747Z,0.00
2022-10-05T01:41:59.778Z,0.00
2022-10-05T01:42:59.762Z,0.00
2022-10-05T01:43:59.761Z,0.00
2022-10-05T01:44:59.772Z,0.00
2022-10-05T01:45:59.798Z,0.00
2022-10-05T01:46:59.784Z,0.00
2022-10-05T01:47:59.792Z,0.00
2022-10-05T01:48:59.791Z,0.00
2022-10-05T01:49:59.799Z,0.00
2022-10-05T01:50:59.810Z,0.00
2022-10-05T01:51:59.818Z,0.00
2022-10-05T01:52:59.821Z,0.00
2022-10-05T01:53:59.829Z,0.00
2022-10-05T01:54:59.829Z,0.00
2022-10-05T01:55:59.835Z,0.00
2022-10-05T01:56:59.846Z,0.00
2022-10-05T01:57:59.866Z,0.00
2022-10-05T01:58:59.856Z,0.00
2022-10-05T01:59:59.865Z,0.00
2022-10-05T02:00:59.980Z,0.00
2022-10-05T02:01:59.924Z,0.00
2022-10-05T02:02:59.878Z,0.00
2022-10-05T02:03:59.899Z,0.00
2022-10-05T02:05:02.574Z,0.00
2022-10-05T02:05:59.903Z,0.00
2022-10-05T02:06:59.909Z,0.00
2022-10-05T02:07:59.915Z,0.00
2022-10-05T02:08:59.921Z,0.00
2022-10-05T02:09:59.919Z,0.00
2022-10-05T02:10:59.926Z,0.00
2022-10-05T02:11:59.935Z,0.00
2022-10-05T02:12:59.948Z,0.00
2022-10-05T02:13:59.971Z,0.00
2022-10-05T02:14:59.952Z,0.00
2022-10-05T02:16:00.017Z,0.00
2022-10-05T02:16:59.963Z,0.00
2022-10-05T02:17:59.979Z,0.00
2022-10-05T02:18:59.976Z,0.00
2022-10-05T02:19:59.984Z,0.00
2022-10-05T02:20:59.994Z,0.00
2022-10-05T02:21:59.995Z,0.00
2022-10-05T02:23:00.006Z,0.00
2022-10-05T02:24:00.022Z,0.00
2022-10-05T02:25:00.011Z,0.00
2022-10-05T02:26:00.047Z,0.00
2022-10-05T02:27:00.030Z,0.00
2022-10-05T02:28:00.093Z,0.00
2022-10-05T02:29:00.046Z,0.00
2022-10-05T02:30:00.064Z,0.00
2022-10-05T02:31:00.057Z,0.00
2022-10-05T02:32:00.057Z,0.00
2022-10-05T02:33:00.076Z,0.00
2022-10-05T02:34:00.072Z,0.00
2022-10-05T02:35:00.087Z,0.00
2022-10-05T02:36:00.078Z,0.00
2022-10-05T02:37:00.090Z,0.00
2022-10-05T02:38:00.101Z,0.00
2022-10-05T02:39:00.100Z,0.00
2022-10-05T02:40:00.117Z,0.00
2022-10-05T02:41:00.114Z,0.00
2022-10-05T02:42:00.120Z,0.00
2022-10-05T02:43:00.124Z,0.00
2022-10-05T02:44:00.139Z,0.00
2022-10-05T02:45:00.138Z,0.00
2022-10-05T02:46:00.244Z,0.00
2022-10-05T02:47:00.155Z,0.00
2022-10-05T02:48:00.156Z,0.00
2022-10-05T02:49:00.163Z,0.00
2022-10-05T02:50:00.166Z,0.00
2022-10-05T02:51:00.170Z,0.00
2022-10-05T02:52:00.182Z,0.00
2022-10-05T02:53:00.189Z,0.00
2022-10-05T02:54:00.187Z,0.00
2022-10-05T02:55:00.204Z,0.00
2022-10-05T02:56:00.200Z,0.00
2022-10-05T02:57:00.204Z,0.00
2022-10-05T02:58:00.212Z,0.00
2022-10-05T02:59:00.226Z,0.00
2022-10-05T03:00:00.224Z,0.00
2022-10-05T03:01:00.305Z,0.00
2022-10-05T03:02:00.367Z,0.00
2022-10-05T03:03:00.242Z,0.00
2022-10-05T03:04:00.260Z,0.00
2022-10-05T03:05:00.266Z,0.00
2022-10-05T03:06:00.259Z,0.00
2022-10-05T03:07:00.266Z,0.00
2022-10-05T03:08:00.274Z,0.00
2022-10-05T03:09:00.277Z,0.00
2022-10-05T03:10:01.351Z,0.00
2022-10-05T03:11:00.293Z,0.00
2022-10-05T03:12:00.297Z,0.00
2022-10-05T03:13:00.301Z,0.00
2022-10-05T03:14:00.316Z,0.00
2022-10-05T03:15:00.314Z,0.00
2022-10-05T03:16:00.392Z,0.00
2022-10-05T03:17:00.325Z,0.00
2022-10-05T03:18:00.388Z,0.00
2022-10-05T03:19:00.339Z,0.00
2022-10-05T03:20:00.355Z,0.00
2022-10-05T03:21:00.384Z,0.00
2022-10-05T03:22:00.359Z,0.00
2022-10-05T03:23:00.371Z,0.00
2022-10-05T03:24:00.369Z,0.00
2022-10-05T03:25:00.383Z,0.00
2022-10-05T03:26:00.383Z,0.00
2022-10-05T03:27:00.389Z,0.00
2022-10-05T03:28:00.453Z,0.00
2022-10-05T03:29:00.401Z,0.00
2022-10-05T03:30:00.414Z,0.00
2022-10-05T03:31:00.567Z,0.00
2022-10-05T03:32:00.420Z,0.00
2022-10-05T03:33:00.424Z,0.00
2022-10-05T03:34:00.459Z,0.00
2022-10-05T03:35:00.443Z,0.00
2022-10-05T03:36:00.444Z,0.00
2022-10-05T03:37:00.448Z,0.00
2022-10-05T03:38:00.459Z,0.00
2022-10-05T03:39:00.461Z,0.00
2022-10-05T03:40:00.476Z,0.00
2022-10-05T03:41:00.475Z,0.00
2022-10-05T03:42:00.477Z,0.00
2022-10-05T03:43:00.486Z,0.00
2022-10-05T03:44:00.497Z,0.00
2022-10-05T03:45:00.505Z,0.00
2022-10-05T03:46:00.564Z,0.00
2022-10-05T03:47:00.511Z,0.00
2022-10-05T03:48:01.621Z,0.00
2022-10-05T03:49:00.524Z,0.00
2022-10-05T03:50:00.550Z,0.00
2022-10-05T03:51:00.532Z,0.00
2022-10-05T03:52:00.545Z,0.00
2022-10-05T03:53:00.552Z,0.00
2022-10-05T03:54:00.556Z,0.00
2022-10-05T03:55:00.556Z,0.00
2022-10-05T03:56:03.128Z,0.00
2022-10-05T03:57:00.574Z,0.00
2022-10-05T03:58:00.579Z,0.00
2022-10-05T03:59:00.580Z,0.00
2022-10-05T04:00:00.601Z,0.00
2022-10-05T04:01:00.590Z,0.00
2022-10-05T04:02:00.651Z,0.00
2022-10-05T04:03:00.689Z,0.00
2022-10-05T04:04:00.616Z,0.00
2022-10-05T04:05:00.613Z,0.00
2022-10-05T04:06:00.700Z,0.00
2022-10-05T04:07:00.633Z,0.00
2022-10-05T04:08:00.633Z,0.00
2022-10-05T04:09:00.636Z,0.00
2022-10-05T04:10:00.651Z,0.00
2022-10-05T04:11:00.648Z,0.00
2022-10-05T04:12:00.663Z,0.00
2022-10-05T04:13:00.667Z,0.00
2022-10-05T04:14:00.668Z,0.00
2022-10-05T04:15:00.683Z,0.00
2022-10-05T04:16:00.752Z,0.00
2022-10-05T04:17:00.685Z,0.00
2022-10-05T04:18:00.688Z,0.00
2022-10-05T04:19:00.702Z,0.00
2022-10-05T04:20:00.706Z,0.00
2022-10-05T04:21:00.706Z,0.00
2022-10-05T04:22:00.731Z,0.00
2022-10-05T04:23:00.726Z,0.00
2022-10-05T04:24:00.729Z,0.00
2022-10-05T04:25:00.730Z,0.00
2022-10-05T04:26:00.739Z,0.00
2022-10-05T04:27:00.749Z,0.00
2022-10-05T04:28:00.848Z,0.00
2022-10-05T04:29:00.753Z,0.00
2022-10-05T04:30:00.763Z,0.00
2022-10-05T04:31:00.809Z,0.00
2022-10-05T04:32:00.769Z,0.00
2022-10-05T04:33:00.774Z,0.00
2022-10-05T04:34:00.787Z,0.00
2022-10-05T04:35:00.784Z,0.00
2022-10-05T04:36:00.791Z,0.00
2022-10-05T04:37:00.796Z,0.00
2022-10-05T04:38:00.825Z,0.00
2022-10-05T04:39:00.807Z,0.00
2022-10-05T04:40:00.822Z,0.00
2022-10-05T04:41:00.818Z,0.00
2022-10-05T04:42:00.833Z,0.00
2022-10-05T04:43:00.829Z,0.00
2022-10-05T04:44:00.845Z,0.00
2022-10-05T04:45:00.847Z,0.00
2022-10-05T04:46:00.848Z,0.00
2022-10-05T04:47:00.929Z,0.00
2022-10-05T04:48:00.860Z,0.00
2022-10-05T04:49:00.874Z,0.00
2022-10-05T04:50:00.881Z,0.00
2022-10-05T04:51:00.883Z,0.00
2022-10-05T04:52:00.887Z,0.00
2022-10-05T04:53:00.887Z,0.00
2022-10-05T04:54:00.918Z,0.00
2022-10-05T04:55:00.908Z,0.00
2022-10-05T04:56:00.908Z,0.00
2022-10-05T04:57:00.915Z,0.00
2022-10-05T04:58:00.913Z,0.00
2022-10-05T04:59:00.927Z,0.00
2022-10-05T05:00:00.925Z,0.00
2022-10-05T05:01:01.017Z,0.00
2022-10-05T05:02:00.943Z,0.00
2022-10-05T05:03:00.942Z,0.00
2022-10-05T05:04:00.979Z,0.00
2022-10-05T05:05:00.953Z,0.00
2022-10-05T05:06:17.669Z,0.00
2022-10-05T05:07:00.965Z,0.00
2022-10-05T05:08:00.969Z,0.00
2022-10-05T05:09:00.975Z,0.00
2022-10-05T05:10:01.011Z,0.00
2022-10-05T05:11:00.988Z,0.00
2022-10-05T05:12:01.002Z,0.00
2022-10-05T05:13:01.005Z,0.00
2022-10-05T05:14:01.004Z,0.00
2022-10-05T05:15:01.008Z,0.00
2022-10-05T05:16:01.088Z,0.00
2022-10-05T05:17:01.028Z,0.00
2022-10-05T05:18:01.028Z,0.00
2022-10-05T05:19:01.033Z,0.00
2022-10-05T05:20:01.036Z,0.00
2022-10-05T05:21:01.051Z,0.00
2022-10-05T05:22:01.050Z,5.63
2022-10-05T05:23:01.062Z,5.63
2022-10-05T05:24:01.070Z,5.63
2022-10-05T05:25:01.079Z,5.63
2022-10-05T05:26:01.102Z,5.63
2022-10-05T05:27:01.084Z,5.63
2022-10-05T05:28:01.117Z,5.63
2022-10-05T05:29:01.088Z,5.63
2022-10-05T05:30:01.103Z,5.63
2022-10-05T05:31:01.146Z,11.25
2022-10-05T05:32:01.114Z,11.25
2022-10-05T05:33:01.113Z,11.25
2022-10-05T05:34:01.127Z,11.25
2022-10-05T05:35:01.124Z,11.25
2022-10-05T05:36:01.131Z,11.25
2022-10-05T05:37:01.141Z,16.88
2022-10-05T05:38:01.142Z,16.88
2022-10-05T05:39:01.146Z,16.88
2022-10-05T05:40:01.152Z,16.88
2022-10-05T05:41:01.159Z,16.88
2022-10-05T05:42:01.190Z,22.50
2022-10-05T05:43:01.169Z,22.50
2022-10-05T05:44:01.183Z,22.50
2022-10-05T05:45:01.189Z,22.50
2022-10-05T05:46:01.186Z,22.50
2022-10-05T05:47:04.403Z,28.13
2022-10-05T05:48:01.206Z,28.13
2022-10-05T05:49:01.203Z,28.13
2022-10-05T05:50:06.620Z,33.75
2022-10-05T05:51:01.221Z,33.75
2022-10-05T05:52:01.220Z,33.75
2022-10-05T05:53:01.232Z,39.38
2022-10-05T05:54:01.237Z,39.38
2022-10-05T05:55:01.244Z,39.38
2022-10-05T05:56:01.242Z,45.00
2022-10-05T05:57:01.255Z,45.00
2022-10-05T05:58:01.284Z,45.00
2022-10-05T05:59:01.260Z,50.63
2022-10-05T06:00:01.273Z,50.63
2022-10-05T06:01:01.269Z,50.63
2022-10-05T06:02:01.436Z,56.25
2022-10-05T06:03:01.400Z,56.25
2022-10-05T06:04:01.297Z,56.25
2022-10-05T06:05:01.292Z,56.25
2022-10-05T06:06:01.308Z,56.25
2022-10-05T06:07:01.304Z,56.25
2022-10-05T06:08:01.311Z,56.25
2022-10-05T06:09:01.315Z,56.25
2022-10-05T06:10:01.323Z,56.25
2022-10-05T06:11:01.328Z,56.25
2022-10-05T06:12:01.342Z,56.25
2022-10-05T06:13:01.920Z,61.88
2022-10-05T06:14:01.366Z,61.88
2022-10-05T06:15:01.355Z,67.50
2022-10-05T06:16:01.420Z,67.50
2022-10-05T06:17:01.360Z,67.50
2022-10-05T06:18:01.382Z,67.50
2022-10-05T06:19:01.379Z,73.13
2022-10-05T06:20:05.203Z,73.13
2022-10-05T06:21:01.389Z,78.75
2022-10-05T06:22:01.396Z,84.38
2022-10-05T06:23:01.396Z,84.38
2022-10-05T06:24:01.409Z,90.00
2022-10-05T06:25:01.414Z,90.00
2022-10-05T06:26:01.411Z,90.00
2022-10-05T06:27:01.421Z,90.00
2022-10-05T06:28:01.472Z,95.63
2022-10-05T06:29:01.437Z,95.63
2022-10-05T06:30:01.474Z,95.63
2022-10-05T06:31:01.449Z,95.63
2022-10-05T06:32:01.534Z,95.63
2022-10-05T06:33:01.455Z,95.63
2022-10-05T06:34:01.457Z,101.25
2022-10-05T06:35:01.463Z,101.25
2022-10-05T06:36:01.476Z,101.25
2022-10-05T06:37:01.482Z,106.88
2022-10-05T06:38:01.490Z,112.50
2022-10-05T06:39:01.496Z,112.50
2022-10-05T06:40:01.621Z,118.13
2022-10-05T06:41:01.506Z,118.13
2022-10-05T06:42:01.506Z,123.75
2022-10-05T06:43:01.517Z,123.75
2022-10-05T06:44:01.526Z,118.13
2022-10-05T06:45:01.532Z,118.13
2022-10-05T06:46:01.618Z,112.50
2022-10-05T06:47:01.536Z,106.88
2022-10-05T06:48:05.172Z,106.88
2022-10-05T06:49:01.547Z,101.25
2022-10-05T06:50:01.565Z,101.25
2022-10-05T06:51:01.559Z,106.88
2022-10-05T06:52:01.571Z,106.88
2022-10-05T06:53:01.579Z,112.50
2022-10-05T06:54:01.576Z,112.50
2022-10-05T06:55:01.585Z,106.88
2022-10-05T06:56:01.589Z,106.88
2022-10-05T06:57:01.595Z,106.88
2022-10-05T06:58:01.611Z,106.88
2022-10-05T06:59:01.608Z,106.88
2022-10-05T07:00:01.621Z,106.88
2022-10-05T07:01:01.681Z,106.88
2022-10-05T07:02:01.856Z,106.88
2022-10-05T07:03:01.638Z,118.13
2022-10-05T07:04:01.645Z,123.75
2022-10-05T07:05:01.645Z,129.38
2022-10-05T07:06:01.653Z,135.00
2022-10-05T07:07:01.656Z,135.00
2022-10-05T07:08:01.664Z,140.63
2022-10-05T07:09:01.673Z,140.63
2022-10-05T07:10:01.676Z,140.63
2022-10-05T07:11:01.687Z,140.63
2022-10-05T07:12:05.047Z,146.25
2022-10-05T07:13:01.694Z,151.88
2022-10-05T07:14:01.710Z,157.50
2022-10-05T07:15:01.711Z,157.50
2022-10-05T07:16:01.806Z,163.13
2022-10-05T07:17:01.728Z,157.50
2022-10-05T07:18:01.801Z,157.50
2022-10-05T07:19:01.744Z,157.50
2022-10-05T07:20:01.740Z,157.50
2022-10-05T07:21:01.750Z,140.63
2022-10-05T07:22:01.810Z,146.25
2022-10-05T07:23:01.764Z,146.25
2022-10-05T07:24:01.770Z,151.88
2022-10-05T07:25:01.770Z,163.13
2022-10-05T07:26:01.784Z,180.00
2022-10-05T07:27:01.784Z,281.25
2022-10-05T07:28:01.942Z,303.75
2022-10-05T07:29:01.802Z,360.00
2022-10-05T07:30:01.814Z,376.88
2022-10-05T07:31:01.918Z,388.13
2022-10-05T07:32:01.824Z,410.63
2022-10-05T07:33:01.821Z,466.88
2022-10-05T07:34:01.851Z,517.50
2022-10-05T07:35:01.838Z,534.38
2022-10-05T07:36:01.853Z,540.00
2022-10-05T07:37:01.851Z,191.25
2022-10-05T07:38:01.861Z,208.13
2022-10-05T07:39:01.877Z,253.13
2022-10-05T07:40:01.919Z,410.63
2022-10-05T07:41:01.889Z,523.13
2022-10-05T07:42:01.899Z,551.25
2022-10-05T07:43:01.900Z,573.75
2022-10-05T07:44:02.999Z,596.25
2022-10-05T07:45:01.919Z,607.50
2022-10-05T07:46:01.990Z,630.00
2022-10-05T07:47:01.945Z,658.13
2022-10-05T07:50:07.143Z,714.38
2022-10-05T07:51:07.129Z,748.13
2022-10-05T08:19:22.055Z,776.25
2022-10-05T08:20:21.991Z,348.75
2022-10-05T08:21:21.999Z,382.50
2022-10-05T08:22:22.003Z,703.13
2022-10-05T08:23:22.022Z,855.00
2022-10-05T08:24:22.026Z,855.00
2022-10-05T08:25:22.050Z,877.50
2022-10-05T09:41:12.435Z,1192.50
2022-10-05T09:42:12.425Z,1220.63
2022-10-05T09:43:12.432Z,1333.13
2022-10-05T09:44:12.454Z,1186.88
2022-10-05T09:45:12.460Z,1018.13
2022-10-05T10:17:54.856Z,990.00
2022-10-05T10:18:54.846Z,894.38
2022-10-05T10:19:54.862Z,961.88
2022-10-05T10:20:54.880Z,1068.75
2022-10-05T10:21:54.888Z,1378.13
2022-10-05T10:22:54.901Z,1659.38
2022-10-05T10:24:37.466Z,1541.25
2022-10-05T10:25:37.485Z,1670.63
2022-10-05T10:26:37.503Z,1653.75
2022-10-05T14:15:42.249Z,821.25
2022-10-05T14:16:40.247Z,826.88
2022-10-05T14:17:39.790Z,810.00
2022-10-05T15:50:02.838Z,45.00
2022-10-05T15:51:02.842Z,45.00
2022-10-05T15:52:02.831Z,45.00
2022-10-05T15:53:02.851Z,45.00
2022-10-05T15:54:06.702Z,45.00
2022-10-05T15:55:02.876Z,45.00
2022-10-05T15:56:02.887Z,45.00
2022-10-05T15:57:02.899Z,45.00
2022-10-05T15:58:02.903Z,39.38
2022-10-05T15:59:02.923Z,39.38
2022-10-05T16:00:02.932Z,39.38
2022-10-05T16:01:02.981Z,39.38
2022-10-05T16:02:03.044Z,39.38
2022-10-05T16:03:02.968Z,39.38
2022-10-05T16:04:02.973Z,39.38
2022-10-05T16:07:52.055Z,33.75
2022-10-05T16:08:48.903Z,33.75
2022-10-05T16:13:42.252Z,28.13
2022-10-05T16:19:30.322Z,22.50
2022-10-05T16:20:30.322Z,22.50
2022-10-05T16:21:30.347Z,22.50
2022-10-05T16:22:30.354Z,22.50
2022-10-05T16:23:30.493Z,22.50
2022-10-05T16:24:30.366Z,16.88
2022-10-05T16:25:30.384Z,16.88
2022-10-05T16:26:30.395Z,16.88
2022-10-05T16:27:30.401Z,16.88
2022-10-05T16:28:30.444Z,16.88
2022-10-05T16:29:30.432Z,16.88
2022-10-05T16:30:30.455Z,11.25
2022-10-05T16:31:30.452Z,11.25
2022-10-05T16:32:30.464Z,11.25
2022-10-05T16:33:30.465Z,11.25
2022-10-05T16:34:30.479Z,11.25
2022-10-05T16:35:30.494Z,11.25
2022-10-05T16:36:30.499Z,11.25
2022-10-05T16:37:30.518Z,5.63
2022-10-05T16:38:30.527Z,5.63
2022-10-05T16:39:30.559Z,5.63
2022-10-05T16:40:30.541Z,5.63
2022-10-05T16:41:30.561Z,5.63
2022-10-05T16:42:30.564Z,5.63
2022-10-05T16:43:30.573Z,5.63
2022-10-05T16:44:30.584Z,5.63
2022-10-05T16:45:30.594Z,5.63
2022-10-05T16:46:30.704Z,0.00
2022-10-05T16:47:30.618Z,0.00
2022-10-05T16:48:30.638Z,0.00
2022-10-05T16:49:30.646Z,0.00
2022-10-05T16:50:30.653Z,0.00
2022-10-05T16:51:30.659Z,0.00
2022-10-05T16:52:30.669Z,0.00
2022-10-05T16:53:30.687Z,0.00
2022-10-05T16:54:30.692Z,0.00
2022-10-05T16:55:30.729Z,0.00
2022-10-05T16:56:30.711Z,0.00
2022-10-05T16:57:30.720Z,0.00
2022-10-05T16:58:30.741Z,0.00
2022-10-05T16:59:30.749Z,0.00
2022-10-05T17:00:30.759Z,0.00
2022-10-05T17:01:30.782Z,0.00
2022-10-05T17:02:30.854Z,0.00
2022-10-05T17:03:30.793Z,0.00
2022-10-05T17:04:30.793Z,0.00
2022-10-05T17:05:30.812Z,0.00
2022-10-05T17:06:30.826Z,0.00
2022-10-05T17:07:30.824Z,0.00
2022-10-05T17:08:30.839Z,0.00
2022-10-05T17:09:30.887Z,0.00
2022-10-05T17:10:30.855Z,0.00
2022-10-05T17:11:30.889Z,0.00
2022-10-05T17:12:30.875Z,0.00
2022-10-05T17:13:30.894Z,0.00
2022-10-05T17:14:30.897Z,0.00
2022-10-05T17:15:30.929Z,0.00
2022-10-05T17:16:30.916Z,0.00
2022-10-05T17:17:30.932Z,0.00
2022-10-05T17:18:30.945Z,0.00
2022-10-05T17:19:30.954Z,0.00
2022-10-05T17:20:30.964Z,0.00
2022-10-05T17:21:30.975Z,0.00
2022-10-05T17:22:30.984Z,0.00
2022-10-05T17:23:30.988Z,0.00
2022-10-05T17:24:31.003Z,0.00
2022-10-05T17:25:31.008Z,0.00
2022-10-05T17:26:31.026Z,0.00
2022-10-05T17:27:31.050Z,0.00
2022-10-05T17:28:31.076Z,0.00
2022-10-05T17:29:31.047Z,0.00
2022-10-05T17:30:31.126Z,0.00
2022-10-05T17:31:31.085Z,0.00
2022-10-05T17:32:31.077Z,0.00
2022-10-05T17:33:31.098Z,0.00
2022-10-05T17:34:31.105Z,0.00
2022-10-05T17:35:31.117Z,0.00
2022-10-05T17:36:31.126Z,0.00
2022-10-05T17:37:31.134Z,0.00
2022-10-05T17:38:31.145Z,0.00
2022-10-05T17:39:31.155Z,0.00
2022-10-05T17:40:31.159Z,0.00
2022-10-05T17:41:31.169Z,0.00
2022-10-05T17:42:31.185Z,0.00
2022-10-05T17:43:31.284Z,0.00
2022-10-05T17:44:31.197Z,0.00
2022-10-05T17:45:31.217Z,0.00
2022-10-05T17:46:31.320Z,0.00
2022-10-05T17:47:31.238Z,0.00
2022-10-05T17:48:31.248Z,0.00
2022-10-05T17:49:31.248Z,0.00
2022-10-05T17:50:31.259Z,0.00
2022-10-05T17:51:31.271Z,0.00
2022-10-05T17:52:31.279Z,0.00
2022-10-05T17:53:31.298Z,0.00
2022-10-05T17:54:31.299Z,0.00
2022-10-05T17:55:31.319Z,0.00
2022-10-05T17:56:31.318Z,0.00
2022-10-05T17:57:31.337Z,0.00
2022-10-05T17:58:31.339Z,0.00
2022-10-05T17:59:31.450Z,0.00
2022-10-05T18:00:31.362Z,0.00
2022-10-05T18:01:31.439Z,0.00
2022-10-05T18:02:36.006Z,0.00
2022-10-05T18:03:31.415Z,0.00
2022-10-05T18:04:31.400Z,0.00
2022-10-05T18:05:31.418Z,0.00
2022-10-05T18:06:31.418Z,0.00
2022-10-05T18:07:31.430Z,0.00
2022-10-05T18:08:33.118Z,0.00
2022-10-05T18:09:31.456Z,0.00
2022-10-05T18:10:31.465Z,0.00
2022-10-05T18:11:31.469Z,0.00
2022-10-05T18:12:31.485Z,0.00
2022-10-05T18:13:31.488Z,0.00
2022-10-05T18:14:31.504Z,0.00
2022-10-05T18:15:31.610Z,0.00
2022-10-05T18:16:31.518Z,0.00
2022-10-05T18:17:31.530Z,0.00
2022-10-05T18:18:31.552Z,0.00
2022-10-05T18:19:31.556Z,0.00
2022-10-05T18:20:31.720Z,0.00
2022-10-05T18:21:31.573Z,0.00
2022-10-05T18:22:31.580Z,0.00
2022-10-05T18:23:31.594Z,0.00
2022-10-05T18:24:31.595Z,0.00
2022-10-05T18:25:31.605Z,0.00
2022-10-05T18:26:31.622Z,0.00
2022-10-05T18:27:31.632Z,0.00
2022-10-05T18:28:31.676Z,0.00
2022-10-05T18:29:31.653Z,0.00
2022-10-05T18:30:31.653Z,0.00
2022-10-05T18:31:31.762Z,0.00
2022-10-05T18:32:31.680Z,0.00
2022-10-05T18:33:31.688Z,0.00
2022-10-05T18:35:14.245Z,0.00
2022-10-05T18:36:14.246Z,0.00
2022-10-05T18:37:15.271Z,0.00
2022-10-05T18:39:12.043Z,0.00
2022-10-05T18:40:11.857Z,0.00
2022-10-05T18:41:11.867Z,0.00
2022-10-05T18:42:11.896Z,0.00
2022-10-05T18:43:15.861Z,0.00
2022-10-05T18:44:11.889Z,0.00
2022-10-05T18:45:11.895Z,0.00
2022-10-05T18:46:11.958Z,0.00
2022-10-05T18:47:11.942Z,0.00
2022-10-05T18:55:13.825Z,0.00
2022-10-05T18:56:15.248Z,0.00
2022-10-05T18:58:06.410Z,0.00
2022-10-05T18:59:06.419Z,0.00
2022-10-05T19:00:06.435Z,0.00
2022-10-05T19:01:06.438Z,0.00
2022-10-05T19:02:06.603Z,0.00
2022-10-05T19:03:06.477Z,0.00
2022-10-05T19:04:06.464Z,0.00
2022-10-05T19:06:19.081Z,0.00
2022-10-05T19:08:36.708Z,0.00
2022-10-05T19:09:36.712Z,0.00
2022-10-05T19:10:36.722Z,0.00
2022-10-05T19:11:36.736Z,0.00
2022-10-05T19:12:41.234Z,0.00
2022-10-05T19:13:36.756Z,0.00
2022-10-05T19:14:36.865Z,0.00
2022-10-05T19:15:36.867Z,0.00
2022-10-05T19:16:36.777Z,0.00
2022-10-05T19:17:36.786Z,0.00
2022-10-05T19:18:36.815Z,0.00
2022-10-05T19:19:36.810Z,0.00
2022-10-05T19:20:36.813Z,0.00
2022-10-05T19:21:36.831Z,0.00
2022-10-05T19:22:36.833Z,0.00
2022-10-05T19:23:36.842Z,0.00
2022-10-05T19:24:36.850Z,0.00
2022-10-05T19:25:36.868Z,0.00
2022-10-05T19:26:36.870Z,0.00
2022-10-05T19:27:36.879Z,0.00
2022-10-05T19:28:36.920Z,0.00
2022-10-05T19:29:36.904Z,0.00
2022-10-05T19:30:36.907Z,0.00
2022-10-05T19:31:36.950Z,0.00
2022-10-05T19:32:36.924Z,0.00
2022-10-05T19:33:36.937Z,0.00
2022-10-05T19:34:36.975Z,0.00
2022-10-05T19:35:36.960Z,0.00
2022-10-05T19:36:36.963Z,0.00
2022-10-05T19:37:36.974Z,0.00
2022-10-05T19:38:36.982Z,0.00
2022-10-05T19:39:36.997Z,0.00
2022-10-05T19:40:36.998Z,0.00
2022-10-05T19:41:37.016Z,0.00
2022-10-05T19:42:37.019Z,0.00
2022-10-05T19:43:37.035Z,0.00
2022-10-05T19:44:37.042Z,0.00
2022-10-05T19:45:37.047Z,0.00
2022-10-05T19:46:37.106Z,0.00
2022-10-05T19:47:40.317Z,0.00
2022-10-05T19:48:37.079Z,0.00
2022-10-05T19:49:37.081Z,0.00
2022-10-05T19:50:37.113Z,0.00
2022-10-05T19:51:37.100Z,0.00
2022-10-05T19:52:37.114Z,0.00
2022-10-05T19:53:37.147Z,0.00
2022-10-05T19:54:37.126Z,0.00
2022-10-05T19:55:37.137Z,0.00
2022-10-05T19:56:37.146Z,0.00
2022-10-05T19:57:37.154Z,0.00
2022-10-05T19:58:37.163Z,0.00
2022-10-05T19:59:37.179Z,0.00
2022-10-05T20:00:37.193Z,0.00
2022-10-05T20:01:37.233Z,0.00
2022-10-05T20:02:41.783Z,0.00
2022-10-05T20:03:37.209Z,0.00
2022-10-05T20:04:37.225Z,0.00
2022-10-05T20:05:37.235Z,0.00
2022-10-05T20:06:37.259Z,0.00
2022-10-05T20:07:37.243Z,0.00
2022-10-05T20:08:37.255Z,0.00
2022-10-05T20:09:37.270Z,0.00
2022-10-05T20:10:37.279Z,0.00
2022-10-05T20:11:37.282Z,0.00
2022-10-05T20:12:37.291Z,0.00
2022-10-05T20:13:37.307Z,0.00
2022-10-05T20:14:37.316Z,0.00
2022-10-05T20:15:37.325Z,0.00
2022-10-05T20:16:37.497Z,0.00
2022-10-05T20:17:37.337Z,0.00
2022-10-05T20:18:37.344Z,0.00
2022-10-05T20:19:37.362Z,0.00
2022-10-05T20:20:37.372Z,0.00
2022-10-05T20:21:37.381Z,0.00
2022-10-05T20:22:37.403Z,0.00
2022-10-05T20:23:37.390Z,0.00
2022-10-05T20:24:37.398Z,0.00
2022-10-05T20:25:37.418Z,0.00
2022-10-05T20:26:37.417Z,0.00
2022-10-05T20:27:37.522Z,0.00
2022-10-05T20:28:37.534Z,0.00
2022-10-05T20:29:37.450Z,0.00
2022-10-05T20:30:37.456Z,0.00
2022-10-05T20:31:37.602Z,0.00
2022-10-05T20:32:37.479Z,0.00
2022-10-05T20:33:37.483Z,0.00
2022-10-05T20:34:37.491Z,0.00
2022-10-05T20:35:37.508Z,0.00
2022-10-05T20:36:37.515Z,0.00
2022-10-05T20:37:37.519Z,0.00
2022-10-05T20:38:41.076Z,0.00
2022-10-05T20:39:37.535Z,0.00
2022-10-05T20:40:37.552Z,0.00
2022-10-05T20:41:37.557Z,0.00
2022-10-05T20:42:37.571Z,0.00
2022-10-05T20:43:37.574Z,0.00
2022-10-05T20:44:37.581Z,0.00
2022-10-05T20:45:37.600Z,0.00
2022-10-05T20:46:37.683Z,0.00
2022-10-05T20:47:37.618Z,0.00
2022-10-05T20:48:37.626Z,0.00
2022-10-05T20:49:37.628Z,0.00
2022-10-05T20:50:37.637Z,0.00
2022-10-05T20:51:37.646Z,0.00
2022-10-05T20:52:37.654Z,0.00
2022-10-05T20:53:37.676Z,0.00
2022-10-05T20:54:37.808Z,0.00
2022-10-05T20:55:37.682Z,0.00
2022-10-05T20:56:37.709Z,0.00
2022-10-05T20:57:37.707Z,0.00
2022-10-05T20:58:37.711Z,0.00
2022-10-05T20:59:37.725Z,0.00
2022-10-05T21:00:37.826Z,0.00
2022-10-05T21:01:37.747Z,0.00
2022-10-05T21:02:37.753Z,0.00
2022-10-05T21:03:37.762Z,0.00
2022-10-05T21:04:41.596Z,0.00
2022-10-05T21:05:37.775Z,0.00
2022-10-05T21:06:37.789Z,0.00
2022-10-05T21:07:37.799Z,0.00
2022-10-05T21:08:37.808Z,0.00
2022-10-05T21:09:37.817Z,0.00
2022-10-05T21:10:37.846Z,0.00
2022-10-05T21:11:37.825Z,0.00
2022-10-05T21:12:37.836Z,0.00
2022-10-05T21:13:37.853Z,0.00
2022-10-05T21:14:37.863Z,0.00
2022-10-05T21:15:37.870Z,0.00
2022-10-05T21:16:37.945Z,0.00
2022-10-05T21:17:37.892Z,0.00
2022-10-05T21:18:37.898Z,0.00
2022-10-05T21:19:37.906Z,0.00